createdAt,value
2018-07-04T00:00:58.824Z,98568.89
2018-07-04T00:03:38.451Z,98567.39
2018-07-04T00:06:18.309Z,98568.75
2018-07-04T00:08:58.124Z,98568.09
2018-07-04T00:11:37.796Z,98564.40
2018-07-04T00:14:17.507Z,98566.28
2018-07-04T00:16:57.322Z,98572.41
2018-07-04T00:19:37.014Z,98573.11
2018-07-04T00:22:16.679Z,98571.09
2018-07-04T00:24:58.870Z,98568.89
2018-07-04T00:27:38.568Z,98572.12
2018-07-04T00:30:18.444Z,98574.08
2018-07-04T00:32:58.303Z,98573.11
2018-07-04T00:35:38.119Z,98572.20
2018-07-04T00:38:17.703Z,98573.14
2018-07-04T00:40:57.451Z,98569.27
2018-07-04T00:43:37.375Z,98578.40
2018-07-04T00:46:16.991Z,98572.69
2018-07-04T00:48:57.049Z,98569.17
2018-07-04T00:51:36.823Z,98569.55
2018-07-04T00:54:16.929Z,98575.88
2018-07-04T00:56:56.624Z,98574.09
2018-07-04T00:59:36.374Z,98568.42
2018-07-04T01:02:16.152Z,98568.53
2018-07-04T01:04:55.819Z,98572.52
2018-07-04T01:07:35.443Z,98571.19
2018-07-04T01:10:15.191Z,98566.43
2018-07-04T01:12:55.179Z,98574.89
2018-07-04T01:15:34.952Z,98569.31
2018-07-04T01:18:14.619Z,98568.31
2018-07-04T01:20:59.772Z,98561.18
2018-07-04T01:23:39.428Z,98569.00
2018-07-04T01:26:19.051Z,98568.31
2018-07-04T01:28:58.928Z,98573.21
2018-07-04T01:31:38.638Z,98574.74
2018-07-04T01:34:18.491Z,98573.39
2018-07-04T01:36:58.111Z,98570.36
2018-07-04T01:39:37.680Z,98558.87
2018-07-04T01:42:17.444Z,98566.17
2018-07-04T01:44:57.206Z,98561.58
2018-07-04T01:47:37.105Z,98557.36
2018-07-04T01:50:16.860Z,98551.13
2018-07-04T01:52:56.744Z,98553.55
2018-07-04T02:02:54.220Z,98537.84
2018-07-04T02:05:34.064Z,98531.27
2018-07-04T02:08:13.847Z,98530.98
2018-07-04T02:10:53.547Z,98537.46
2018-07-04T02:13:33.108Z,98535.95
2018-07-04T02:16:12.966Z,98533.91
2018-07-04T02:18:52.903Z,98535.81
2018-07-04T02:21:32.511Z,98541.94
2018-07-04T02:24:12.186Z,98536.20
2018-07-04T02:26:52.036Z,98543.86
2018-07-04T02:29:31.754Z,98552.53
2018-07-04T02:32:11.624Z,98546.13
2018-07-04T02:34:55.404Z,98542.59
2018-07-04T02:37:34.975Z,98553.95
2018-07-04T02:40:14.649Z,98554.79
2018-07-04T02:42:54.327Z,98558.05
2018-07-04T02:45:34.395Z,98559.83
2018-07-04T02:48:14.168Z,98558.45
2018-07-04T02:50:53.988Z,98554.20
2018-07-04T02:53:34.042Z,98558.47
2018-07-04T02:56:13.660Z,98553.11
2018-07-04T02:58:53.814Z,98549.70
2018-07-04T03:01:33.578Z,98546.84
2018-07-04T03:04:13.428Z,98543.98
2018-07-04T03:06:55.615Z,98543.34
2018-07-04T03:09:35.514Z,98549.08
2018-07-04T03:12:15.153Z,98546.16
2018-07-04T03:14:54.876Z,98549.03
2018-07-04T03:17:35.009Z,98550.41
2018-07-04T03:20:14.681Z,98554.42
2018-07-04T03:22:54.523Z,98547.95
2018-07-04T03:25:34.319Z,98554.92
2018-07-04T03:28:14.318Z,98562.02
2018-07-04T03:30:54.200Z,98558.47
2018-07-04T03:33:33.753Z,98553.06
2018-07-04T03:36:13.499Z,98554.09
2018-07-04T03:38:53.375Z,98563.06
2018-07-04T03:41:33.103Z,98563.52
2018-07-04T03:44:12.828Z,98565.55
2018-07-04T03:46:52.522Z,98565.23
2018-07-04T03:49:32.792Z,98558.68
2018-07-04T03:52:12.606Z,98554.98
2018-07-04T03:54:52.323Z,98552.44
2018-07-04T03:57:32.116Z,98557.17
2018-07-04T04:00:11.796Z,98556.08
2018-07-04T04:02:51.627Z,98551.69
2018-07-04T04:05:31.304Z,98546.58
2018-07-04T04:08:11.165Z,98549.53
2018-07-04T04:10:50.973Z,98552.83
2018-07-04T04:13:30.799Z,98557.28
2018-07-04T04:16:10.580Z,98549.73
2018-07-04T04:18:50.412Z,98549.42
2018-07-04T04:21:30.170Z,98552.72
2018-07-04T04:24:09.846Z,98552.06
2018-07-04T04:26:49.751Z,98546.61
2018-07-04T04:29:29.373Z,98553.33
2018-07-04T04:32:10.294Z,98549.92
2018-07-04T04:34:50.154Z,98558.87
2018-07-04T04:37:29.765Z,98566.46
2018-07-04T04:40:09.650Z,98566.37
2018-07-04T04:42:49.686Z,98566.40
2018-07-04T04:45:29.535Z,98564.58
2018-07-04T04:48:09.231Z,98565.88
2018-07-04T04:50:48.973Z,98568.45
2018-07-04T04:53:28.794Z,98571.94
2018-07-04T04:56:08.489Z,98573.75
2018-07-04T04:58:48.308Z,98574.03
2018-07-04T05:01:28.140Z,98578.73
2018-07-04T05:04:07.767Z,98578.78
2018-07-04T05:06:47.542Z,98584.28
2018-07-04T05:09:28.516Z,98591.34
2018-07-04T05:12:08.393Z,98586.61
2018-07-04T05:14:48.120Z,98587.98
2018-07-04T05:17:27.952Z,98581.08
2018-07-04T05:20:07.646Z,98583.33
2018-07-04T05:22:47.234Z,98591.94
2018-07-04T05:25:27.184Z,98595.00
2018-07-04T05:28:06.897Z,98596.78
2018-07-04T05:30:46.747Z,98598.27
2018-07-04T05:33:26.572Z,98598.78
2018-07-04T05:36:06.230Z,98592.20
2018-07-04T05:38:46.273Z,98594.70
2018-07-04T05:41:25.867Z,98597.27
2018-07-04T05:44:06.079Z,98598.44
2018-07-04T05:46:45.746Z,98601.13
2018-07-04T05:49:25.704Z,98608.47
2018-07-04T05:52:05.558Z,98600.66
2018-07-04T05:54:45.355Z,98598.03
2018-07-04T05:57:24.992Z,98604.37
2018-07-04T06:00:04.831Z,98605.73
2018-07-04T06:02:44.584Z,98611.36
2018-07-04T06:05:25.743Z,98609.00
2018-07-04T06:08:06.032Z,98609.62
2018-07-04T06:10:45.760Z,98607.38
2018-07-04T06:13:25.571Z,98608.70
2018-07-04T06:16:05.184Z,98608.80
2018-07-04T06:18:45.031Z,98612.34
2018-07-04T06:21:24.875Z,98616.64
2018-07-04T06:24:04.655Z,98616.84
2018-07-04T06:26:44.490Z,98614.23
2018-07-04T06:29:24.406Z,98612.33
2018-07-04T06:32:04.132Z,98613.15
2018-07-04T06:34:44.021Z,98616.66
2018-07-04T06:37:23.848Z,98620.80
2018-07-04T06:39:51.110Z,98616.91
2018-07-04T06:42:18.362Z,98618.38
2018-07-04T06:44:45.622Z,98613.84
2018-07-04T06:47:12.964Z,98619.20
2018-07-04T06:49:40.244Z,98619.00
2018-07-04T06:52:07.480Z,98615.12
2018-07-04T06:54:34.775Z,98616.76
2018-07-04T06:57:02.063Z,98616.42
2018-07-04T06:59:29.335Z,98620.57
2018-07-04T07:02:12.864Z,98616.40
2018-07-04T07:04:53.775Z,98611.41
2018-07-04T07:07:33.998Z,98618.33
2018-07-04T07:10:13.800Z,98615.89
2018-07-04T07:12:53.659Z,98613.02
2018-07-04T07:15:34.280Z,98605.44
2018-07-04T07:18:14.863Z,98612.37
2018-07-04T07:20:54.570Z,98610.43
2018-07-04T07:23:34.332Z,98607.43
2018-07-04T07:26:14.098Z,98613.28
2018-07-04T07:28:53.919Z,98616.27
2018-07-04T07:31:33.892Z,98611.26
2018-07-04T07:34:13.656Z,98612.06
2018-07-04T07:36:53.569Z,98606.80
2018-07-04T07:39:33.181Z,98612.27
2018-07-04T07:42:12.935Z,98608.63
2018-07-04T07:44:52.521Z,98612.52
2018-07-04T07:47:32.366Z,98610.62
2018-07-04T07:50:12.571Z,98608.77
2018-07-04T07:52:52.319Z,98611.29
2018-07-04T07:55:32.024Z,98612.46
2018-07-04T07:58:12.145Z,98606.69
2018-07-04T08:00:51.948Z,98612.77
2018-07-04T08:03:31.819Z,98615.94
2018-07-04T08:06:12.021Z,98614.73
2018-07-04T08:08:51.787Z,98608.02
2018-07-04T08:11:31.588Z,98608.92
2018-07-04T08:14:11.390Z,98607.39
2018-07-04T08:16:51.156Z,98608.39
2018-07-04T08:19:30.915Z,98607.50
2018-07-04T08:22:14.363Z,98606.36
2018-07-04T08:24:54.079Z,98611.73
2018-07-04T08:27:34.583Z,98605.97
2018-07-04T08:30:14.411Z,98603.20
2018-07-04T08:32:54.355Z,98604.09
2018-07-04T08:35:34.239Z,98606.08
2018-07-04T08:38:14.252Z,98608.84
2018-07-04T08:40:53.885Z,98607.87
2018-07-04T08:43:33.640Z,98605.74
2018-07-04T08:46:13.668Z,98608.98
2018-07-04T08:48:53.378Z,98610.38
2018-07-04T08:51:33.042Z,98604.92
2018-07-04T08:54:12.763Z,98609.10
2018-07-04T08:56:52.436Z,98603.78
2018-07-04T08:59:32.175Z,98598.47
2018-07-04T09:02:11.948Z,98610.98
2018-07-04T09:04:51.773Z,98603.33
2018-07-04T09:07:31.336Z,98604.48
2018-07-04T09:10:11.155Z,98606.66
2018-07-04T09:12:51.166Z,98608.72
2018-07-04T09:15:30.729Z,98600.47
2018-07-04T09:18:10.543Z,98604.77
2018-07-04T09:20:50.170Z,98604.70
2018-07-04T09:23:30.240Z,98599.56
2018-07-04T09:26:10.981Z,98595.09
2018-07-04T09:28:50.935Z,98601.06
2018-07-04T09:31:30.779Z,98603.04
2018-07-04T09:34:10.659Z,98599.81
2018-07-04T09:36:51.218Z,98603.86
2018-07-04T09:39:31.167Z,98594.14
2018-07-04T09:42:10.796Z,98602.12
2018-07-04T09:44:50.440Z,98597.47
2018-07-04T09:47:34.559Z,98589.67
2018-07-04T09:50:14.453Z,98584.36
2018-07-04T09:52:54.192Z,98580.76
2018-07-04T09:55:33.877Z,98587.08
2018-07-04T09:58:13.644Z,98579.83
2018-07-04T10:00:58.731Z,98588.16
2018-07-04T10:03:38.443Z,98593.00
2018-07-04T10:06:18.103Z,98584.38
2018-07-04T10:08:58.016Z,98584.27
2018-07-04T10:11:38.179Z,98578.23
2018-07-04T10:14:18.320Z,98578.66
2018-07-04T10:16:58.191Z,98575.05
2018-07-04T10:19:38.894Z,98573.57
2018-07-04T10:22:19.081Z,98570.80
2018-07-04T10:24:58.751Z,98573.01
2018-07-04T10:27:38.391Z,98573.66
2018-07-04T10:30:18.504Z,98573.88
2018-07-04T10:32:58.219Z,98563.41
2018-07-04T10:35:38.170Z,98561.97
2018-07-04T10:38:18.193Z,98558.42
2018-07-04T10:40:57.855Z,98554.27
2018-07-04T10:43:37.645Z,98551.88
2018-07-04T10:46:17.426Z,98557.52
2018-07-04T10:48:57.260Z,98554.97
2018-07-04T10:51:37.449Z,98545.79
2018-07-04T10:54:16.930Z,98552.65
2018-07-04T10:56:56.573Z,98555.55
2018-07-04T10:59:36.588Z,98537.26
2018-07-04T11:02:16.363Z,98532.86
2018-07-04T11:04:56.156Z,98530.80
2018-07-04T11:07:36.006Z,98519.59
2018-07-04T11:10:15.759Z,98519.68
2018-07-04T11:12:56.880Z,98515.41
2018-07-04T11:15:36.549Z,98514.64
2018-07-04T11:18:16.316Z,98509.80
2018-07-04T11:20:56.073Z,98511.55
2018-07-04T11:23:35.815Z,98497.52
2018-07-04T11:26:15.669Z,98499.38
2018-07-04T11:28:55.448Z,98500.11
2018-07-04T11:31:35.251Z,98492.12
2018-07-04T11:34:14.992Z,98490.50
2018-07-04T11:36:55.520Z,98495.04
2018-07-04T11:39:35.296Z,98495.32
2018-07-04T11:42:14.932Z,98490.38
2018-07-04T11:44:54.756Z,98492.98
2018-07-04T11:47:22.103Z,98490.94
2018-07-04T11:49:49.334Z,98477.27
2018-07-04T11:52:16.606Z,98483.55
2018-07-04T11:54:44.015Z,98477.67
2018-07-04T11:57:11.284Z,98467.08
2018-07-04T11:59:38.550Z,98473.61
2018-07-04T12:02:05.874Z,98467.08
2018-07-04T12:04:45.594Z,98477.05
2018-07-04T12:07:12.889Z,98476.64
2018-07-04T12:09:40.679Z,98477.20
2018-07-04T12:12:07.958Z,98471.89
2018-07-04T12:14:35.210Z,98475.09
2018-07-04T12:17:02.446Z,98464.04
2018-07-04T12:19:29.717Z,98464.47
2018-07-04T12:21:56.961Z,98453.33
2018-07-04T12:24:24.209Z,98457.39
2018-07-04T12:26:51.528Z,98448.95
2018-07-04T12:29:18.746Z,98443.34
2018-07-04T12:31:45.970Z,98453.67
2018-07-04T12:34:13.237Z,98453.83
2018-07-04T12:36:40.474Z,98451.20
2018-07-04T12:39:07.734Z,98438.94
2018-07-04T12:41:34.964Z,98438.19
2018-07-04T12:44:02.210Z,98430.09
2018-07-04T12:46:29.871Z,98427.16
2018-07-04T12:49:01.500Z,98431.84
2018-07-04T12:51:29.690Z,98436.09
2018-07-04T12:54:02.364Z,98428.23
2018-07-04T12:56:41.979Z,98415.02
2018-07-04T12:59:21.895Z,98415.70
2018-07-04T13:02:02.084Z,98416.34
2018-07-04T13:04:41.837Z,98418.29
2018-07-04T13:07:22.128Z,98419.74
2018-07-04T13:10:01.908Z,98429.89
2018-07-04T13:12:45.978Z,98424.50
2018-07-04T13:15:25.726Z,98431.61
2018-07-04T13:18:05.386Z,98424.22
2018-07-04T13:20:45.286Z,98412.44
2018-07-04T13:23:25.275Z,98410.89
2018-07-04T13:26:05.123Z,98403.94
2018-07-04T13:28:44.850Z,98406.70
2018-07-04T13:31:24.546Z,98398.01
2018-07-04T13:34:04.266Z,98397.05
2018-07-04T13:36:43.990Z,98387.20
2018-07-04T13:39:23.826Z,98391.52
2018-07-04T13:42:03.487Z,98386.23
2018-07-04T13:44:43.239Z,98384.91
2018-07-04T13:47:22.927Z,98382.34
2018-07-04T13:50:02.814Z,98372.95
2018-07-04T13:52:42.415Z,98366.61
2018-07-04T13:55:22.582Z,98363.09
2018-07-04T13:58:03.333Z,98355.95
2018-07-04T14:00:43.190Z,98351.79
2018-07-04T14:03:23.040Z,98344.45
2018-07-04T14:06:02.816Z,98349.91
2018-07-04T14:08:42.619Z,98346.31
2018-07-04T14:11:22.202Z,98353.56
2018-07-04T14:14:01.759Z,98338.88
2018-07-04T14:16:41.526Z,98333.41
2018-07-04T14:19:21.292Z,98326.26
2018-07-04T14:22:01.047Z,98331.12
2018-07-04T14:24:40.708Z,98334.34
2018-07-04T14:27:20.386Z,98320.47
2018-07-04T14:30:00.247Z,98328.59
2018-07-04T14:32:40.038Z,98328.09
2018-07-04T14:35:19.890Z,98325.93
2018-07-04T14:37:59.788Z,98327.38
2018-07-04T14:40:39.476Z,98321.07
2018-07-04T14:43:19.210Z,98323.86
2018-07-04T14:45:59.104Z,98326.23
2018-07-04T14:48:38.824Z,98322.91
2018-07-04T14:51:18.851Z,98316.16
2018-07-04T14:53:58.607Z,98313.61
2018-07-04T14:56:38.410Z,98307.98
2018-07-04T14:59:18.139Z,98302.77
2018-07-04T15:01:58.096Z,98299.63
2018-07-04T15:04:37.750Z,98296.23
2018-07-04T15:07:17.617Z,98287.30
2018-07-04T15:09:57.396Z,98288.05
2018-07-04T15:12:37.179Z,98286.45
2018-07-04T15:15:17.058Z,98280.76
2018-07-04T15:17:56.779Z,98280.41
2018-07-04T15:20:36.554Z,98284.16
2018-07-04T15:23:16.362Z,98279.80
2018-07-04T15:25:56.078Z,98277.47
2018-07-04T15:28:37.146Z,98274.47
2018-07-04T15:31:16.965Z,98271.37
2018-07-04T15:33:56.539Z,98271.06
2018-07-04T15:36:36.323Z,98278.54
2018-07-04T15:39:16.104Z,98279.23
2018-07-04T15:41:55.795Z,98274.22
2018-07-04T15:44:35.423Z,98280.16
2018-07-04T15:47:15.062Z,98279.81
2018-07-04T15:49:55.174Z,98279.81
2018-07-04T15:52:34.926Z,98294.73
2018-07-04T15:55:14.519Z,98292.63
2018-07-04T15:57:54.365Z,98287.20
2018-07-04T16:00:33.952Z,98281.44
2018-07-04T16:03:13.731Z,98278.40
2018-07-04T16:05:53.324Z,98280.89
2018-07-04T16:08:33.479Z,98277.98
2018-07-04T16:11:13.391Z,98276.42
2018-07-04T16:13:53.325Z,98264.98
2018-07-04T16:16:33.251Z,98266.67
2018-07-04T16:19:12.936Z,98261.17
2018-07-04T16:21:52.694Z,98262.01
2018-07-04T16:24:32.351Z,98262.48
2018-07-04T16:27:12.082Z,98267.41
2018-07-04T16:29:51.944Z,98273.73
2018-07-04T16:32:31.699Z,98264.48
2018-07-04T16:35:11.307Z,98265.05
2018-07-04T16:37:51.136Z,98256.31
2018-07-04T16:40:30.801Z,98244.46
2018-07-04T16:43:10.467Z,98245.68
2018-07-04T16:45:50.233Z,98236.00
2018-07-04T16:48:30.090Z,98236.59
2018-07-04T16:51:09.903Z,98234.06
2018-07-04T16:53:49.786Z,98234.62
2018-07-04T16:56:29.499Z,98223.83
2018-07-04T16:59:09.447Z,98232.23
2018-07-04T17:01:49.294Z,98225.69
2018-07-04T17:04:29.135Z,98219.23
2018-07-04T17:07:08.828Z,98217.41
2018-07-04T17:09:48.432Z,98206.27
2018-07-04T17:12:28.192Z,98205.49
2018-07-04T17:15:07.975Z,98202.95
2018-07-04T17:17:47.627Z,98194.75
2018-07-04T17:20:27.561Z,98193.70
2018-07-04T17:23:07.253Z,98194.70
2018-07-04T17:25:47.002Z,98198.52
2018-07-04T17:28:26.921Z,98192.52
2018-07-04T17:31:06.600Z,98185.83
2018-07-04T17:33:46.122Z,98182.50
2018-07-04T17:36:26.955Z,98187.16
2018-07-04T17:39:06.848Z,98184.44
2018-07-04T17:41:46.702Z,98197.03
2018-07-04T17:44:26.523Z,98200.14
2018-07-04T17:47:06.306Z,98195.31
2018-07-04T17:49:46.080Z,98195.27
2018-07-04T17:52:25.675Z,98199.64
2018-07-04T17:55:05.482Z,98208.92
2018-07-04T17:57:45.543Z,98212.55
2018-07-04T18:00:25.331Z,98214.08
2018-07-04T18:03:05.150Z,98215.75
2018-07-04T18:05:44.975Z,98222.69
2018-07-04T18:08:24.690Z,98219.89
2018-07-04T18:11:04.437Z,98224.02
2018-07-04T18:13:44.251Z,98217.84
2018-07-04T18:16:24.038Z,98231.25
2018-07-04T18:19:08.539Z,98228.61
2018-07-04T18:21:48.218Z,98235.63
2018-07-04T18:24:27.916Z,98228.55
2018-07-04T18:27:07.725Z,98228.67
2018-07-04T18:29:47.437Z,98228.56
2018-07-04T18:32:27.371Z,98231.23
2018-07-04T18:35:07.138Z,98220.85
2018-07-04T18:37:46.675Z,98222.07
2018-07-04T18:40:26.577Z,98222.70
2018-07-04T18:43:06.306Z,98220.81
2018-07-04T18:45:46.080Z,98224.77
2018-07-04T18:48:26.080Z,98213.83
2018-07-04T18:51:05.986Z,98217.75
2018-07-04T18:53:45.798Z,98216.09
2018-07-04T18:56:25.559Z,98215.01
2018-07-04T18:59:05.376Z,98225.06
2018-07-04T19:01:45.130Z,98211.98
2018-07-04T19:04:24.925Z,98215.75
2018-07-04T19:07:04.750Z,98221.67
2018-07-04T19:09:48.322Z,98230.74
2018-07-04T19:12:28.154Z,98242.22
2018-07-04T19:15:07.980Z,98244.92
2018-07-04T19:17:47.688Z,98244.44
2018-07-04T19:20:27.411Z,98255.60
2018-07-04T19:23:07.309Z,98250.16
2018-07-04T19:25:47.075Z,98250.75
2018-07-04T19:28:26.875Z,98243.41
2018-07-04T19:31:06.695Z,98250.81
2018-07-04T19:33:46.481Z,98258.56
2018-07-04T19:36:26.406Z,98259.52
2018-07-04T19:39:06.848Z,98257.26
2018-07-04T19:41:46.668Z,98261.78
2018-07-04T19:44:26.340Z,98260.50
2018-07-04T19:47:06.119Z,98268.53
2018-07-04T19:49:46.016Z,98263.95
2018-07-04T19:52:25.792Z,98265.31
2018-07-04T19:55:05.426Z,98273.23
2018-07-04T19:57:45.091Z,98279.10
2018-07-04T20:00:24.854Z,98285.73
2018-07-04T20:03:04.622Z,98300.73
2018-07-04T20:05:44.348Z,98292.38
2018-07-04T20:08:24.125Z,98285.45
2018-07-04T20:11:03.914Z,98282.02
2018-07-04T20:13:43.755Z,98280.23
2018-07-04T20:16:23.570Z,98278.64
2018-07-04T20:19:03.311Z,98270.26
2018-07-04T20:21:43.038Z,98269.58
2018-07-04T20:24:22.838Z,98264.46
2018-07-04T20:27:02.525Z,98265.94
2018-07-04T20:29:42.222Z,98269.59
2018-07-04T20:32:21.979Z,98278.87
2018-07-04T20:35:01.763Z,98279.19
2018-07-04T20:37:41.826Z,98278.13
2018-07-04T20:40:21.652Z,98277.19
2018-07-04T20:43:01.318Z,98272.89
2018-07-04T20:45:41.669Z,98270.62
2018-07-04T20:48:21.591Z,98267.65
2018-07-04T20:51:01.378Z,98266.33
2018-07-04T20:53:41.321Z,98262.20
2018-07-04T20:56:21.094Z,98269.61
2018-07-04T20:59:01.409Z,98268.70
2018-07-04T21:01:41.023Z,98265.00
2018-07-04T21:04:20.790Z,98268.24
2018-07-04T21:07:00.677Z,98272.62
2018-07-04T21:09:40.274Z,98283.02
2018-07-04T21:12:20.003Z,98291.20
2018-07-04T21:14:59.709Z,98299.77
2018-07-04T21:17:39.526Z,98298.99
2018-07-04T21:20:19.341Z,98297.78
2018-07-04T21:22:59.050Z,98299.59
2018-07-04T21:25:38.812Z,98299.59
2018-07-04T21:28:18.535Z,98294.80
2018-07-04T21:30:58.346Z,98297.52
2018-07-04T21:33:38.116Z,98306.16
2018-07-04T21:36:18.047Z,98298.82
2018-07-04T21:38:57.903Z,98288.89
2018-07-04T21:41:37.658Z,98290.26
2018-07-04T21:44:17.485Z,98292.84
2018-07-04T21:46:57.412Z,98301.61
2018-07-04T21:49:37.110Z,98297.12
2018-07-04T21:52:21.455Z,98296.95
2018-07-04T21:55:01.267Z,98290.37
2018-07-04T21:57:41.236Z,98294.48
2018-07-04T22:00:23.684Z,98304.53
2018-07-04T22:03:03.442Z,98297.30
2018-07-04T22:05:43.418Z,98297.30
2018-07-04T22:08:23.572Z,98302.88
2018-07-04T22:11:03.199Z,98298.59
2018-07-04T22:13:42.985Z,98297.02
2018-07-04T22:16:22.791Z,98303.28
2018-07-04T22:19:02.495Z,98306.77
2018-07-04T22:21:42.287Z,98301.11
2018-07-04T22:24:22.155Z,98302.98
2018-07-04T22:27:01.843Z,98310.86
2018-07-04T22:29:41.635Z,98312.52
2018-07-04T22:32:21.472Z,98309.89
2018-07-04T22:35:05.686Z,98315.78
2018-07-04T22:37:45.460Z,98316.59
2018-07-04T22:40:25.355Z,98312.81
2018-07-04T22:43:04.988Z,98308.19
2018-07-04T22:45:44.727Z,98302.50
2018-07-04T22:48:24.538Z,98303.42
2018-07-04T22:51:04.279Z,98305.06
2018-07-04T22:53:44.067Z,98306.30
2018-07-04T22:56:23.995Z,98316.66
2018-07-04T22:59:03.859Z,98306.69
2018-07-04T23:01:43.443Z,98302.78
2018-07-04T23:04:23.320Z,98308.19
2018-07-04T23:07:02.904Z,98309.54
2018-07-04T23:09:42.459Z,98309.61
2018-07-04T23:12:22.207Z,98306.42
2018-07-04T23:15:02.053Z,98311.63
2018-07-04T23:17:43.072Z,98313.64
2018-07-04T23:20:22.789Z,98324.02
2018-07-04T23:23:02.470Z,98327.38
2018-07-04T23:25:42.163Z,98317.52
2018-07-04T23:28:22.051Z,98328.62
2018-07-04T23:31:01.919Z,98322.23
2018-07-04T23:33:41.844Z,98327.55
2018-07-04T23:36:21.539Z,98325.27
2018-07-04T23:39:01.284Z,98326.06
2018-07-04T23:41:40.996Z,98317.45
2018-07-04T23:44:20.743Z,98313.31
2018-07-04T23:47:00.467Z,98304.80
2018-07-04T23:49:40.296Z,98304.44
2018-07-04T23:52:20.227Z,98305.38
2018-07-04T23:55:00.025Z,98305.72
2018-07-04T23:57:39.804Z,98310.14
